createdAt,value
2018-11-03T00:01:00.567Z,90.30
2018-11-03T00:02:04.465Z,90.20
2018-11-03T00:03:08.006Z,90.30
2018-11-03T00:04:11.584Z,90.40
2018-11-03T00:05:15.787Z,90.30
2018-11-03T00:06:19.419Z,90.70
2018-11-03T00:07:23.029Z,90.40
2018-11-03T00:08:26.581Z,90.30
2018-11-03T00:09:30.158Z,90.40
2018-11-03T00:10:33.801Z,90.30
2018-11-03T00:11:37.640Z,90.50
2018-11-03T00:12:41.295Z,90.50
2018-11-03T00:13:44.854Z,90.60
2018-11-03T00:14:48.438Z,90.60
2018-11-03T00:15:52.011Z,90.50
2018-11-03T00:16:55.583Z,90.60
2018-11-03T00:17:59.156Z,90.60
2018-11-03T00:19:02.731Z,90.60
2018-11-03T00:20:06.729Z,90.60
2018-11-03T00:21:10.321Z,90.70
2018-11-03T00:22:13.894Z,90.80
2018-11-03T00:23:17.466Z,90.80
2018-11-03T00:24:21.048Z,90.80
2018-11-03T00:25:24.615Z,90.80
2018-11-03T00:26:28.199Z,91.20
2018-11-03T00:27:31.789Z,90.80
2018-11-03T00:28:35.366Z,90.90
2018-11-03T00:29:38.939Z,90.90
2018-11-03T00:30:42.507Z,90.80
2018-11-03T00:31:46.077Z,90.90
2018-11-03T00:32:49.711Z,91.00
2018-11-03T00:33:53.404Z,91.00
2018-11-03T00:34:57.791Z,91.00
2018-11-03T00:36:01.363Z,91.00
2018-11-03T00:37:04.931Z,90.90
2018-11-03T00:38:08.502Z,90.90
2018-11-03T00:39:12.789Z,90.80
2018-11-03T00:40:16.348Z,90.80
2018-11-03T00:41:19.944Z,90.90
2018-11-03T00:42:23.514Z,90.90
2018-11-03T00:43:27.079Z,90.90
2018-11-03T00:44:30.675Z,90.90
2018-11-03T00:45:34.250Z,90.90
2018-11-03T00:46:38.126Z,90.80
2018-11-03T00:47:42.719Z,90.80
2018-11-03T00:48:46.306Z,90.90
2018-11-03T00:49:49.910Z,90.90
2018-11-03T00:50:53.511Z,90.90
2018-11-03T00:51:57.063Z,90.90
2018-11-03T00:53:00.630Z,90.90
2018-11-03T00:54:04.197Z,91.10
2018-11-03T00:55:08.434Z,90.80
2018-11-03T00:56:11.994Z,90.90
2018-11-03T00:57:15.562Z,90.90
2018-11-03T00:58:19.131Z,90.90
2018-11-03T00:59:22.746Z,90.90
2018-11-03T01:00:26.337Z,90.90
2018-11-03T01:01:29.913Z,91.00
2018-11-03T01:02:33.503Z,91.00
2018-11-03T01:03:37.087Z,91.10
2018-11-03T01:04:40.698Z,91.10
2018-11-03T01:05:44.392Z,91.40
2018-11-03T01:06:47.990Z,91.00
2018-11-03T01:07:51.534Z,91.00
2018-11-03T01:08:55.106Z,91.00
2018-11-03T01:09:58.715Z,90.90
2018-11-03T01:11:02.307Z,90.90
2018-11-03T01:12:05.926Z,90.90
2018-11-03T01:13:09.525Z,90.80
2018-11-03T01:14:13.079Z,90.80
2018-11-03T01:15:17.682Z,90.90
2018-11-03T01:16:21.259Z,90.90
2018-11-03T01:17:24.910Z,90.90
2018-11-03T01:18:28.499Z,90.90
2018-11-03T01:19:32.066Z,90.90
2018-11-03T01:20:35.664Z,90.90
2018-11-03T01:21:39.252Z,91.00
2018-11-03T01:22:43.000Z,91.00
2018-11-03T01:23:46.807Z,91.00
2018-11-03T01:24:50.246Z,90.90
2018-11-03T01:25:53.808Z,91.00
2018-11-03T01:26:57.390Z,91.00
2018-11-03T01:28:00.963Z,91.00
2018-11-03T01:29:04.733Z,91.00
2018-11-03T01:30:11.217Z,91.00
2018-11-03T01:31:14.798Z,91.00
2018-11-03T01:32:18.435Z,91.10
2018-11-03T01:33:21.971Z,91.10
2018-11-03T01:34:25.565Z,91.10
2018-11-03T01:35:29.225Z,91.10
2018-11-03T01:36:32.787Z,91.10
2018-11-03T01:37:36.817Z,91.20
2018-11-03T01:38:40.375Z,91.20
2018-11-03T01:39:43.965Z,91.20
2018-11-03T01:40:47.567Z,91.20
2018-11-03T01:41:51.150Z,91.20
2018-11-03T01:42:54.739Z,91.20
2018-11-03T01:43:58.457Z,91.20
2018-11-03T01:45:02.298Z,91.30
2018-11-03T01:46:06.252Z,91.40
2018-11-03T01:47:09.815Z,91.30
2018-11-03T01:48:13.408Z,91.30
2018-11-03T01:49:16.994Z,91.30
2018-11-03T01:50:20.590Z,91.30
2018-11-03T01:51:24.347Z,91.30
2018-11-03T01:52:27.939Z,91.30
2018-11-03T01:53:31.527Z,91.30
2018-11-03T01:54:35.119Z,91.30
2018-11-03T01:55:38.729Z,91.30
2018-11-03T01:56:42.319Z,91.40
2018-11-03T01:57:45.887Z,91.30
2018-11-03T01:58:49.682Z,91.40
2018-11-03T01:59:53.283Z,91.40
2018-11-03T02:00:56.927Z,91.40
2018-11-03T02:02:00.491Z,91.40
2018-11-03T02:03:04.083Z,91.40
2018-11-03T02:04:07.671Z,91.50
2018-11-03T02:05:11.279Z,91.40
2018-11-03T02:06:14.880Z,91.50
2018-11-03T02:07:18.464Z,91.50
2018-11-03T02:08:22.163Z,91.50
2018-11-03T02:09:25.722Z,91.50
2018-11-03T02:10:29.311Z,91.50
2018-11-03T02:11:32.894Z,91.50
2018-11-03T02:12:36.482Z,91.50
2018-11-03T02:13:40.150Z,91.50
2018-11-03T02:14:43.738Z,91.50
2018-11-03T02:15:47.397Z,91.50
2018-11-03T02:16:50.950Z,91.50
2018-11-03T02:17:54.583Z,91.50
2018-11-03T02:18:58.175Z,91.50
2018-11-03T02:20:01.756Z,91.50
2018-11-03T02:21:05.379Z,91.50
2018-11-03T02:22:08.979Z,91.50
2018-11-03T02:23:12.571Z,91.50
2018-11-03T02:24:16.161Z,91.50
2018-11-03T02:25:19.740Z,91.50
2018-11-03T02:26:23.327Z,91.50
2018-11-03T02:27:26.903Z,91.50
2018-11-03T02:28:30.483Z,91.60
2018-11-03T02:29:34.072Z,91.50
2018-11-03T02:30:37.665Z,91.50
2018-11-03T02:31:41.235Z,91.60
2018-11-03T02:32:44.807Z,91.60
2018-11-03T02:33:48.387Z,91.60
2018-11-03T02:34:51.969Z,91.60
2018-11-03T02:35:55.614Z,91.60
2018-11-03T02:36:59.160Z,91.60
2018-11-03T02:38:02.739Z,91.70
2018-11-03T02:39:07.306Z,92.00
2018-11-03T02:40:12.379Z,91.60
2018-11-03T02:41:16.167Z,91.70
2018-11-03T02:42:19.740Z,91.70
2018-11-03T02:43:23.314Z,91.70
2018-11-03T02:44:26.885Z,91.70
2018-11-03T02:45:30.487Z,91.70
2018-11-03T02:46:34.180Z,91.70
2018-11-03T02:47:37.739Z,91.70
2018-11-03T02:48:41.767Z,91.70
2018-11-03T02:49:45.426Z,91.70
2018-11-03T02:50:48.940Z,91.70
2018-11-03T02:51:52.520Z,91.70
2018-11-03T02:52:56.108Z,91.70
2018-11-03T02:53:59.721Z,91.80
2018-11-03T02:55:03.269Z,91.80
2018-11-03T02:56:06.851Z,91.80
2018-11-03T02:57:10.426Z,92.10
2018-11-03T02:58:13.998Z,91.80
2018-11-03T02:59:17.587Z,91.80
2018-11-03T03:00:21.183Z,91.80
2018-11-03T03:01:24.854Z,91.80
2018-11-03T03:02:28.451Z,91.80
2018-11-03T03:03:32.006Z,91.80
2018-11-03T03:04:35.602Z,91.80
2018-11-03T03:05:39.180Z,91.80
2018-11-03T03:06:42.775Z,91.50
2018-11-03T03:07:46.396Z,91.80
2018-11-03T03:08:49.949Z,91.80
2018-11-03T03:09:53.531Z,91.80
2018-11-03T03:10:57.155Z,91.80
2018-11-03T03:12:00.704Z,91.80
2018-11-03T03:13:04.529Z,91.90
2018-11-03T03:14:08.114Z,91.90
2018-11-03T03:15:12.552Z,91.90
2018-11-03T03:16:16.124Z,91.90
2018-11-03T03:17:19.711Z,91.90
2018-11-03T03:18:23.323Z,91.90
2018-11-03T03:19:26.900Z,92.00
2018-11-03T03:20:30.485Z,92.00
2018-11-03T03:21:34.091Z,92.00
2018-11-03T03:22:37.671Z,92.00
2018-11-03T03:23:41.256Z,92.10
2018-11-03T03:24:44.841Z,92.10
2018-11-03T03:25:48.455Z,92.00
2018-11-03T03:26:52.014Z,92.00
2018-11-03T03:27:55.595Z,92.00
2018-11-03T03:28:59.193Z,92.00
2018-11-03T03:30:02.779Z,92.00
2018-11-03T03:31:06.357Z,92.00
2018-11-03T03:32:10.007Z,92.40
2018-11-03T03:33:13.567Z,92.00
2018-11-03T03:34:17.142Z,92.00
2018-11-03T03:35:20.729Z,92.00
2018-11-03T03:36:24.312Z,92.00
2018-11-03T03:37:27.894Z,92.00
2018-11-03T03:38:31.483Z,91.90
2018-11-03T03:39:35.063Z,91.90
2018-11-03T03:40:38.662Z,91.90
2018-11-03T03:41:42.251Z,91.90
2018-11-03T03:42:45.909Z,91.90
2018-11-03T03:43:49.465Z,91.90
2018-11-03T03:44:53.051Z,91.90
2018-11-03T03:45:56.798Z,91.90
2018-11-03T03:47:00.331Z,91.90
2018-11-03T03:48:03.955Z,91.90
2018-11-03T03:49:07.500Z,91.90
2018-11-03T03:50:11.383Z,91.90
2018-11-03T03:51:14.967Z,91.90
2018-11-03T03:52:18.563Z,91.80
2018-11-03T03:53:22.155Z,91.80
2018-11-03T03:54:25.734Z,91.80
2018-11-03T03:55:30.369Z,92.10
2018-11-03T03:56:33.971Z,91.80
2018-11-03T03:57:37.550Z,91.80
2018-11-03T03:58:41.128Z,91.80
2018-11-03T03:59:44.716Z,91.70
2018-11-03T04:00:48.283Z,91.70
2018-11-03T04:01:51.869Z,91.70
2018-11-03T04:02:55.449Z,91.80
2018-11-03T04:03:59.040Z,91.80
2018-11-03T04:05:02.595Z,91.70
2018-11-03T04:06:06.175Z,91.80
2018-11-03T04:07:09.812Z,91.80
2018-11-03T04:08:13.366Z,91.70
2018-11-03T04:09:16.940Z,91.70
2018-11-03T04:10:20.685Z,91.80
2018-11-03T04:11:24.278Z,91.70
2018-11-03T04:12:27.844Z,91.80
2018-11-03T04:13:31.430Z,91.80
2018-11-03T04:14:34.998Z,91.80
2018-11-03T04:15:38.580Z,91.80
2018-11-03T04:16:42.151Z,91.80
2018-11-03T04:17:45.731Z,91.70
2018-11-03T04:18:49.299Z,91.80
2018-11-03T04:19:52.871Z,91.80
2018-11-03T04:20:56.447Z,91.80
2018-11-03T04:22:00.028Z,91.80
2018-11-03T04:23:03.639Z,92.10
2018-11-03T04:24:07.258Z,91.80
2018-11-03T04:25:10.798Z,91.80
2018-11-03T04:26:14.379Z,91.80
2018-11-03T04:27:17.955Z,91.80
2018-11-03T04:28:21.523Z,91.80
2018-11-03T04:29:25.095Z,91.80
2018-11-03T04:30:28.732Z,91.90
2018-11-03T04:31:32.287Z,91.80
2018-11-03T04:32:35.838Z,91.80
2018-11-03T04:33:39.419Z,91.80
2018-11-03T04:34:43.002Z,91.90
2018-11-03T04:35:46.588Z,91.90
2018-11-03T04:36:50.167Z,91.90
2018-11-03T04:37:53.738Z,91.90
2018-11-03T04:38:57.316Z,91.90
2018-11-03T04:40:00.879Z,91.90
2018-11-03T04:41:04.567Z,91.90
2018-11-03T04:42:08.146Z,91.90
2018-11-03T04:43:11.719Z,91.90
2018-11-03T04:44:15.373Z,91.90
2018-11-03T04:45:19.049Z,91.90
2018-11-03T04:46:22.506Z,91.90
2018-11-03T04:47:26.094Z,91.90
2018-11-03T04:48:29.674Z,91.90
2018-11-03T04:49:33.238Z,91.90
2018-11-03T04:50:36.819Z,91.90
2018-11-03T04:51:40.388Z,91.90
2018-11-03T04:52:43.976Z,91.90
2018-11-03T04:53:47.543Z,92.00
2018-11-03T04:54:51.157Z,92.00
2018-11-03T04:55:54.816Z,92.00
2018-11-03T04:56:58.315Z,92.00
2018-11-03T04:58:01.944Z,92.00
2018-11-03T04:59:05.656Z,92.00
2018-11-03T05:00:09.672Z,92.00
2018-11-03T05:01:13.244Z,92.00
2018-11-03T05:02:16.847Z,92.00
2018-11-03T05:03:20.432Z,92.00
2018-11-03T05:04:24.002Z,92.00
2018-11-03T05:05:27.571Z,92.00
2018-11-03T05:06:31.195Z,92.00
2018-11-03T05:07:34.766Z,92.00
2018-11-03T05:08:38.347Z,92.00
2018-11-03T05:09:41.936Z,92.00
2018-11-03T05:10:45.487Z,92.00
2018-11-03T05:11:49.068Z,92.10
2018-11-03T05:12:52.725Z,92.00
2018-11-03T05:13:56.278Z,92.00
2018-11-03T05:14:59.856Z,92.00
2018-11-03T05:16:03.431Z,92.00
2018-11-03T05:17:07.228Z,92.00
2018-11-03T05:18:10.821Z,92.10
2018-11-03T05:19:14.395Z,92.00
2018-11-03T05:20:18.058Z,92.10
2018-11-03T05:21:21.723Z,92.10
2018-11-03T05:22:25.188Z,92.10
2018-11-03T05:23:28.787Z,92.00
2018-11-03T05:24:32.351Z,92.00
2018-11-03T05:25:35.932Z,92.00
2018-11-03T05:26:39.602Z,92.00
2018-11-03T05:27:43.203Z,92.00
2018-11-03T05:28:46.763Z,92.00
2018-11-03T05:29:50.374Z,92.00
2018-11-03T05:30:53.988Z,91.90
2018-11-03T05:31:57.534Z,91.90
2018-11-03T05:33:01.109Z,91.90
2018-11-03T05:34:04.819Z,91.90
2018-11-03T05:35:08.395Z,91.90
2018-11-03T05:36:11.968Z,91.90
2018-11-03T05:37:15.530Z,92.00
2018-11-03T05:38:19.127Z,91.90
2018-11-03T05:39:22.698Z,91.90
2018-11-03T05:40:26.359Z,91.90
2018-11-03T05:41:29.967Z,91.90
2018-11-03T05:42:33.519Z,92.00
2018-11-03T05:43:37.079Z,92.00
2018-11-03T05:44:40.660Z,92.00
2018-11-03T05:45:44.538Z,92.00
2018-11-03T05:46:48.092Z,91.90
2018-11-03T05:47:51.667Z,92.00
2018-11-03T05:48:55.252Z,92.00
2018-11-03T05:49:58.831Z,92.00
2018-11-03T05:51:02.407Z,92.00
2018-11-03T05:52:05.983Z,92.00
2018-11-03T05:53:09.636Z,92.00
2018-11-03T05:54:13.199Z,92.00
2018-11-03T05:55:16.791Z,92.10
2018-11-03T05:56:20.351Z,92.00
2018-11-03T05:57:23.931Z,92.00
2018-11-03T05:58:27.510Z,92.00
2018-11-03T05:59:31.100Z,92.00
2018-11-03T06:00:34.690Z,92.00
2018-11-03T06:01:38.390Z,92.00
2018-11-03T06:02:41.980Z,92.00
2018-11-03T06:03:45.536Z,92.00
2018-11-03T06:04:49.120Z,92.00
2018-11-03T06:05:52.708Z,92.40
2018-11-03T06:06:56.479Z,92.10
2018-11-03T06:08:00.064Z,92.10
2018-11-03T06:09:04.280Z,92.10
2018-11-03T06:10:08.285Z,92.10
2018-11-03T06:11:11.867Z,92.10
2018-11-03T06:12:15.461Z,92.10
2018-11-03T06:13:19.042Z,92.10
2018-11-03T06:14:22.621Z,92.10
2018-11-03T06:15:26.320Z,92.20
2018-11-03T06:16:29.795Z,92.20
2018-11-03T06:17:33.524Z,92.20
2018-11-03T06:18:37.099Z,92.20
2018-11-03T06:19:40.687Z,92.10
2018-11-03T06:20:44.350Z,92.10
2018-11-03T06:21:47.898Z,92.10
2018-11-03T06:22:51.504Z,92.10
2018-11-03T06:23:55.041Z,92.10
2018-11-03T06:24:58.713Z,92.10
2018-11-03T06:26:02.279Z,92.10
2018-11-03T06:27:06.020Z,92.10
2018-11-03T06:28:09.676Z,92.10
2018-11-03T06:29:13.275Z,92.10
2018-11-03T06:30:16.824Z,92.50
2018-11-03T06:31:20.391Z,92.20
2018-11-03T06:32:23.959Z,91.90
2018-11-03T06:33:27.531Z,92.20
2018-11-03T06:34:31.103Z,92.20
2018-11-03T06:35:34.714Z,92.20
2018-11-03T06:36:38.260Z,92.30
2018-11-03T06:37:41.827Z,92.50
2018-11-03T06:38:45.410Z,92.90
2018-11-03T06:39:49.007Z,93.30
2018-11-03T06:40:52.586Z,93.50
2018-11-03T06:41:56.257Z,93.60
2018-11-03T06:42:59.846Z,93.50
2018-11-03T06:44:03.396Z,93.20
2018-11-03T06:45:07.995Z,92.80
2018-11-03T06:46:11.643Z,92.30
2018-11-03T06:47:15.233Z,91.90
2018-11-03T06:48:18.750Z,91.80
2018-11-03T06:49:23.170Z,91.80
2018-11-03T06:50:26.747Z,91.70
2018-11-03T06:51:30.448Z,91.30
2018-11-03T06:52:34.020Z,90.90
2018-11-03T06:53:37.583Z,90.80
2018-11-03T06:54:41.150Z,91.10
2018-11-03T06:55:44.774Z,91.70
2018-11-03T06:56:48.323Z,91.70
2018-11-03T06:57:51.907Z,91.40
2018-11-03T06:58:55.476Z,91.00
2018-11-03T06:59:59.060Z,90.30
2018-11-03T07:01:02.631Z,89.30
2018-11-03T07:02:06.200Z,87.30
2018-11-03T07:03:09.804Z,85.70
2018-11-03T07:04:13.376Z,82.80
2018-11-03T07:05:17.072Z,80.50
2018-11-03T07:06:20.565Z,78.90
2018-11-03T07:07:24.136Z,78.40
2018-11-03T07:08:28.008Z,75.90
2018-11-03T07:09:31.618Z,74.10
2018-11-03T07:10:35.174Z,72.70
2018-11-03T07:11:39.620Z,71.40
2018-11-03T07:12:43.247Z,68.70
2018-11-03T07:13:46.536Z,66.40
2018-11-03T07:14:50.222Z,64.70
2018-11-03T07:15:53.762Z,62.20
2018-11-03T07:16:57.348Z,59.80
2018-11-03T07:18:00.912Z,58.50
2018-11-03T07:19:04.455Z,56.70
2018-11-03T07:20:09.746Z,54.90
2018-11-03T07:21:13.307Z,53.50
2018-11-03T07:22:16.879Z,50.70
2018-11-03T07:23:20.479Z,48.30
2018-11-03T07:24:24.007Z,46.10
2018-11-03T07:25:27.563Z,44.10
2018-11-03T07:26:31.148Z,42.70
2018-11-03T07:27:34.690Z,41.50
2018-11-03T07:28:38.247Z,40.30
2018-11-03T07:29:41.904Z,39.70
2018-11-03T07:30:45.385Z,38.50
2018-11-03T07:31:48.967Z,38.50
2018-11-03T07:32:52.589Z,38.40
2018-11-03T07:33:56.169Z,38.50
2018-11-03T07:34:59.733Z,39.70
2018-11-03T07:36:03.296Z,39.50
2018-11-03T07:37:07.067Z,40.10
2018-11-03T07:38:10.640Z,40.70
2018-11-03T07:39:14.598Z,41.90
2018-11-03T07:40:18.172Z,42.90
2018-11-03T07:41:21.849Z,41.50
2018-11-03T07:42:25.369Z,39.90
2018-11-03T07:43:28.943Z,38.30
2018-11-03T07:44:32.515Z,36.40
2018-11-03T07:45:36.088Z,34.90
2018-11-03T07:46:39.655Z,33.60
2018-11-03T07:47:44.081Z,32.40
2018-11-03T07:48:47.921Z,31.20
2018-11-03T07:49:51.378Z,30.90
2018-11-03T07:50:54.940Z,29.60
2018-11-03T07:51:58.497Z,28.90
2018-11-03T07:53:02.076Z,28.50
2018-11-03T07:54:05.647Z,28.20
2018-11-03T07:55:10.828Z,28.00
2018-11-03T07:56:14.392Z,27.80
2018-11-03T07:57:17.959Z,27.70
2018-11-03T07:58:21.624Z,26.70
2018-11-03T07:59:25.168Z,26.10
2018-11-03T08:00:28.762Z,25.80
2018-11-03T08:01:32.287Z,25.50
2018-11-03T08:02:35.921Z,24.90
2018-11-03T08:03:39.487Z,25.00
2018-11-03T08:04:43.064Z,24.00
2018-11-03T08:05:46.631Z,23.50
2018-11-03T08:06:50.193Z,23.20
2018-11-03T08:07:53.766Z,23.10
2018-11-03T08:08:57.452Z,22.70
2018-11-03T08:10:00.992Z,22.30
2018-11-03T08:11:04.879Z,21.80
2018-11-03T08:12:08.443Z,21.90
2018-11-03T08:13:12.094Z,22.30
2018-11-03T08:14:15.631Z,21.70
2018-11-03T08:15:19.204Z,21.60
2018-11-03T08:16:22.768Z,21.70
2018-11-03T08:17:26.535Z,21.70
2018-11-03T08:18:30.107Z,21.70
2018-11-03T08:19:33.671Z,21.70
2018-11-03T08:20:37.328Z,21.90
2018-11-03T08:21:40.868Z,22.30
2018-11-03T08:22:44.443Z,22.30
2018-11-03T08:23:48.030Z,22.90
2018-11-03T08:24:51.690Z,23.20
2018-11-03T08:25:55.243Z,23.30
2018-11-03T08:26:58.808Z,23.30
2018-11-03T08:28:02.386Z,23.30
2018-11-03T08:29:05.951Z,23.40
2018-11-03T08:30:11.315Z,23.70
2018-11-03T08:31:14.899Z,24.10
2018-11-03T08:32:18.468Z,24.30
2018-11-03T08:33:22.153Z,24.40
2018-11-03T08:34:25.744Z,24.40
2018-11-03T08:35:29.288Z,24.60
2018-11-03T08:36:32.851Z,24.40
2018-11-03T08:37:36.659Z,24.40
2018-11-03T08:38:40.235Z,24.50
2018-11-03T08:39:43.857Z,24.80
2018-11-03T08:40:47.391Z,25.00
2018-11-03T08:41:50.938Z,25.00
2018-11-03T08:42:54.507Z,24.90
2018-11-03T08:43:58.101Z,24.80
2018-11-03T08:45:01.665Z,24.90
2018-11-03T08:46:06.091Z,24.90
2018-11-03T08:47:09.659Z,24.90
2018-11-03T08:48:13.285Z,24.90
2018-11-03T08:49:16.807Z,24.80
2018-11-03T08:50:20.384Z,24.80
2018-11-03T08:51:23.959Z,24.50
2018-11-03T08:52:27.584Z,24.20
2018-11-03T08:53:31.498Z,23.50
2018-11-03T08:54:35.045Z,23.40
2018-11-03T08:55:38.603Z,23.00
2018-11-03T08:56:42.179Z,23.10
2018-11-03T08:57:45.755Z,22.90
2018-11-03T08:58:49.345Z,23.10
2018-11-03T08:59:52.995Z,23.00
2018-11-03T09:00:57.346Z,23.60
2018-11-03T09:02:00.899Z,22.70
2018-11-03T09:03:04.603Z,22.50
2018-11-03T09:04:08.175Z,23.10
2018-11-03T09:05:12.363Z,23.60
2018-11-03T09:06:15.935Z,24.50
2018-11-03T09:07:19.606Z,24.50
2018-11-03T09:08:23.147Z,24.90
2018-11-03T09:09:26.741Z,24.90
2018-11-03T09:10:30.443Z,25.40
2018-11-03T09:11:34.073Z,24.60
2018-11-03T09:12:37.646Z,24.20
2018-11-03T09:13:41.203Z,24.40
2018-11-03T09:14:44.871Z,24.80
2018-11-03T09:15:48.397Z,24.90
2018-11-03T09:16:52.168Z,24.60
2018-11-03T09:17:55.767Z,24.70
2018-11-03T09:18:59.409Z,24.40
2018-11-03T09:20:02.969Z,23.80
2018-11-03T09:21:06.534Z,23.80
2018-11-03T09:22:10.106Z,23.50
2018-11-03T09:23:13.676Z,24.20
2018-11-03T09:24:17.248Z,24.20
2018-11-03T09:25:20.846Z,24.00
2018-11-03T09:26:24.439Z,23.60
2018-11-03T09:27:27.976Z,23.30
2018-11-03T09:28:31.534Z,23.20
2018-11-03T09:29:35.104Z,23.20
2018-11-03T09:30:38.687Z,23.00
2018-11-03T09:31:42.325Z,22.80
2018-11-03T09:32:45.847Z,22.30
2018-11-03T09:33:49.420Z,22.30
2018-11-03T09:34:52.999Z,22.80
2018-11-03T09:35:56.566Z,23.00
2018-11-03T09:37:00.137Z,22.90
2018-11-03T09:38:03.694Z,22.70
2018-11-03T09:39:08.928Z,22.70
2018-11-03T09:40:14.027Z,22.80
2018-11-03T09:41:17.587Z,22.90
2018-11-03T09:42:21.176Z,23.10
2018-11-03T09:43:24.784Z,23.00
2018-11-03T09:44:28.314Z,22.40
2018-11-03T09:45:32.377Z,22.60
2018-11-03T09:46:35.916Z,22.40
2018-11-03T09:47:39.884Z,22.30
2018-11-03T09:48:43.447Z,22.40
2018-11-03T09:49:47.112Z,22.10
2018-11-03T09:50:50.720Z,22.10
2018-11-03T09:51:54.320Z,22.30
2018-11-03T09:52:57.912Z,22.10
2018-11-03T09:54:01.493Z,22.40
2018-11-03T09:55:06.080Z,23.10
2018-11-03T09:56:09.659Z,23.20
2018-11-03T09:57:13.268Z,23.00
2018-11-03T09:58:16.849Z,23.30
2018-11-03T09:59:20.421Z,23.10
2018-11-03T10:00:24.065Z,23.00
2018-11-03T10:01:27.599Z,22.80
2018-11-03T10:02:31.172Z,23.00
2018-11-03T10:03:34.947Z,23.50
2018-11-03T10:04:38.605Z,23.70
2018-11-03T10:05:42.194Z,23.80
2018-11-03T10:06:45.836Z,23.60
2018-11-03T10:07:49.327Z,23.40
2018-11-03T10:08:52.895Z,23.30
2018-11-03T10:09:56.490Z,23.30
2018-11-03T10:11:00.063Z,23.70
2018-11-03T10:12:03.627Z,23.50
2018-11-03T10:13:07.281Z,23.50
2018-11-03T10:14:10.918Z,23.60
2018-11-03T10:15:15.811Z,23.40
2018-11-03T10:16:19.388Z,24.00
2018-11-03T10:17:23.127Z,24.30
2018-11-03T10:18:26.663Z,24.50
2018-11-03T10:19:30.255Z,24.80
2018-11-03T10:20:33.863Z,25.20
2018-11-03T10:21:37.484Z,25.50
2018-11-03T10:22:41.121Z,25.70
2018-11-03T10:23:44.695Z,26.00
2018-11-03T10:24:48.259Z,25.90
2018-11-03T10:25:51.844Z,25.50
2018-11-03T10:26:55.428Z,26.30
2018-11-03T10:27:59.003Z,26.80
2018-11-03T10:29:02.699Z,27.70
2018-11-03T10:30:07.521Z,28.20
2018-11-03T10:31:11.107Z,28.20
2018-11-03T10:32:14.694Z,27.10
2018-11-03T10:33:18.260Z,27.60
2018-11-03T10:34:21.832Z,27.80
2018-11-03T10:35:25.439Z,27.80
2018-11-03T10:36:29.040Z,28.50
2018-11-03T10:37:32.609Z,27.90
2018-11-03T10:38:36.295Z,28.50
2018-11-03T10:39:39.954Z,30.10
2018-11-03T10:40:43.491Z,28.80
2018-11-03T10:41:47.078Z,29.70
2018-11-03T10:42:50.636Z,30.40
2018-11-03T10:43:54.204Z,31.30
2018-11-03T10:44:57.834Z,32.10
2018-11-03T10:46:01.443Z,32.10
2018-11-03T10:47:05.189Z,31.80
2018-11-03T10:48:08.779Z,32.30
2018-11-03T10:49:12.359Z,32.80
2018-11-03T10:50:17.500Z,32.30
2018-11-03T10:51:21.077Z,32.70
2018-11-03T10:52:24.638Z,32.30
2018-11-03T10:53:28.376Z,32.60
2018-11-03T10:54:31.967Z,31.80
2018-11-03T10:55:35.503Z,33.40
2018-11-03T10:56:39.196Z,34.40
2018-11-03T10:57:42.880Z,34.70
2018-11-03T10:58:46.453Z,35.00
2018-11-03T10:59:50.031Z,33.80
2018-11-03T11:00:59.079Z,33.30
2018-11-03T11:02:07.935Z,34.30
2018-11-03T11:03:16.935Z,34.40
2018-11-03T11:04:25.981Z,33.60
2018-11-03T11:05:35.519Z,35.30
2018-11-03T11:06:44.484Z,35.90
2018-11-03T11:07:53.392Z,36.30
2018-11-03T11:09:02.433Z,36.70
2018-11-03T11:10:11.627Z,37.10
2018-11-03T11:11:20.907Z,36.60
2018-11-03T11:12:29.919Z,36.30
2018-11-03T11:13:35.151Z,36.50
2018-11-03T11:14:38.724Z,36.50
2018-11-03T11:15:42.409Z,36.50
2018-11-03T11:16:46.017Z,37.00
2018-11-03T11:17:49.627Z,36.30
2018-11-03T11:18:53.192Z,36.80
2018-11-03T11:19:56.816Z,37.10
2018-11-03T11:21:00.367Z,37.40
2018-11-03T11:22:03.939Z,37.30
2018-11-03T11:23:07.787Z,36.70
2018-11-03T11:24:11.466Z,36.90
2018-11-03T11:25:14.991Z,37.30
2018-11-03T11:26:18.555Z,37.40
2018-11-03T11:27:22.131Z,37.60
2018-11-03T11:28:25.708Z,38.00
2018-11-03T11:29:29.274Z,38.30
2018-11-03T11:30:35.754Z,38.90
2018-11-03T11:31:39.408Z,39.30
2018-11-03T11:32:42.915Z,39.60
2018-11-03T11:33:46.508Z,40.00
2018-11-03T11:34:50.134Z,40.40
2018-11-03T11:35:53.683Z,40.90
2018-11-03T11:36:57.282Z,41.20
2018-11-03T11:38:00.855Z,41.50
2018-11-03T11:39:06.426Z,41.90
2018-11-03T11:40:10.003Z,42.70
2018-11-03T11:41:13.571Z,42.10
2018-11-03T11:42:17.148Z,42.70
2018-11-03T11:43:20.909Z,42.90
2018-11-03T11:44:24.347Z,43.60
2018-11-03T11:45:27.982Z,43.70
2018-11-03T11:46:31.555Z,43.80
2018-11-03T11:47:35.304Z,43.60
2018-11-03T11:48:38.895Z,43.80
2018-11-03T11:49:42.549Z,44.10
2018-11-03T11:50:46.099Z,44.00
2018-11-03T11:51:49.683Z,44.20
2018-11-03T11:52:53.275Z,44.30
2018-11-03T11:53:57.069Z,44.70
2018-11-03T11:55:00.718Z,44.80
2018-11-03T11:56:04.336Z,44.50
2018-11-03T11:57:07.957Z,44.70
2018-11-03T11:58:11.580Z,44.40
2018-11-03T11:59:15.193Z,44.00
2018-11-03T12:00:19.049Z,44.20
2018-11-03T12:01:22.579Z,43.90
2018-11-03T12:02:26.250Z,43.80
2018-11-03T12:03:29.739Z,43.80
2018-11-03T12:04:33.311Z,43.70
2018-11-03T12:05:36.902Z,43.20
2018-11-03T12:06:40.525Z,43.30
2018-11-03T12:07:44.131Z,43.60
2018-11-03T12:08:47.656Z,42.70
2018-11-03T12:09:51.361Z,43.00
2018-11-03T12:10:54.893Z,42.20
2018-11-03T12:11:58.519Z,42.20
2018-11-03T12:13:02.128Z,41.90
2018-11-03T12:14:05.779Z,41.40
2018-11-03T12:15:10.003Z,41.30
2018-11-03T12:16:13.675Z,41.20
2018-11-03T12:17:17.131Z,40.70
2018-11-03T12:18:20.700Z,40.80
2018-11-03T12:19:24.253Z,40.00
2018-11-03T12:20:27.815Z,40.10
2018-11-03T12:21:31.424Z,40.40
2018-11-03T12:22:35.119Z,40.10
2018-11-03T12:23:38.674Z,40.10
2018-11-03T12:24:42.260Z,40.80
2018-11-03T12:25:45.922Z,41.50
2018-11-03T12:26:49.363Z,41.20
2018-11-03T12:27:52.928Z,41.30
2018-11-03T12:28:56.491Z,42.30
2018-11-03T12:30:00.085Z,42.50
2018-11-03T12:31:03.629Z,42.80
2018-11-03T12:32:07.184Z,42.70
2018-11-03T12:33:10.744Z,43.10
2018-11-03T12:34:14.316Z,42.90
2018-11-03T12:35:17.903Z,43.40
2018-11-03T12:36:21.475Z,43.60
2018-11-03T12:37:25.140Z,44.10
2018-11-03T12:38:28.687Z,44.20
2018-11-03T12:39:32.247Z,44.70
2018-11-03T12:40:35.901Z,44.80
2018-11-03T12:41:39.384Z,45.20
2018-11-03T12:42:42.969Z,45.50
2018-11-03T12:43:46.518Z,45.80
2018-11-03T12:44:50.083Z,45.90
2018-11-03T12:45:53.649Z,46.20
2018-11-03T12:46:57.248Z,46.10
2018-11-03T12:48:00.861Z,46.60
2018-11-03T12:49:04.391Z,45.90
2018-11-03T12:50:10.762Z,45.50
2018-11-03T12:51:14.335Z,45.60
2018-11-03T12:52:17.889Z,45.80
2018-11-03T12:53:21.588Z,45.60
2018-11-03T12:54:25.250Z,45.60
2018-11-03T12:55:28.838Z,45.50
2018-11-03T12:56:32.380Z,46.00
2018-11-03T12:57:35.938Z,46.20
2018-11-03T12:58:39.500Z,46.00
2018-11-03T12:59:43.082Z,46.20
2018-11-03T13:00:46.661Z,46.60
2018-11-03T13:01:50.384Z,47.20
2018-11-03T13:02:53.923Z,47.50
2018-11-03T13:03:57.488Z,48.70
2018-11-03T13:05:01.200Z,48.60
2018-11-03T13:06:04.731Z,49.30
2018-11-03T13:07:08.299Z,49.50
2018-11-03T13:08:11.923Z,50.50
2018-11-03T13:09:15.459Z,49.10
2018-11-03T13:10:19.030Z,48.90
2018-11-03T13:11:22.603Z,48.60
2018-11-03T13:12:26.171Z,49.00
2018-11-03T13:13:29.750Z,49.70
2018-11-03T13:14:33.326Z,50.00
2018-11-03T13:15:36.933Z,50.50
2018-11-03T13:16:40.471Z,50.70
2018-11-03T13:17:44.052Z,50.70
2018-11-03T13:18:47.621Z,50.40
2018-11-03T13:19:51.187Z,50.90
2018-11-03T13:20:54.755Z,50.40
2018-11-03T13:21:58.393Z,50.50
2018-11-03T13:23:01.924Z,50.60
2018-11-03T13:24:05.687Z,50.90
2018-11-03T13:25:10.189Z,51.00
2018-11-03T13:26:13.759Z,51.10
2018-11-03T13:27:17.341Z,51.30
2018-11-03T13:28:20.903Z,51.50
2018-11-03T13:29:24.462Z,51.80
2018-11-03T13:30:28.040Z,52.20
2018-11-03T13:31:31.610Z,52.70
2018-11-03T13:32:35.221Z,53.00
2018-11-03T13:33:38.749Z,53.10
2018-11-03T13:34:42.360Z,53.40
2018-11-03T13:35:45.895Z,53.70
2018-11-03T13:36:49.478Z,54.20
2018-11-03T13:37:53.055Z,54.20
2018-11-03T13:38:56.660Z,53.80
2018-11-03T13:40:00.194Z,53.80
2018-11-03T13:41:03.818Z,54.10